createdAt,value
2018-05-27T00:02:05.524Z,64.10
2018-05-27T00:04:33.138Z,68.50
2018-05-27T00:07:00.815Z,66.40
2018-05-27T00:09:28.470Z,95.83
2018-05-27T00:11:56.107Z,68.20
2018-05-27T00:14:23.798Z,94.27
2018-05-27T00:16:51.465Z,82.67
2018-05-27T00:19:19.088Z,83.30
2018-05-27T00:21:46.795Z,86.93
2018-05-27T00:24:14.402Z,71.00
2018-05-27T00:26:42.114Z,76.30
2018-05-27T00:29:09.782Z,73.70
2018-05-27T00:31:37.444Z,75.03
2018-05-27T00:34:05.063Z,73.53
2018-05-27T00:36:32.711Z,72.47
2018-05-27T00:39:00.428Z,72.33
2018-05-27T00:41:28.094Z,59.37
2018-05-27T00:43:55.706Z,50.53
2018-05-27T00:46:23.416Z,55.20
2018-05-27T00:48:51.057Z,60.20
2018-05-27T00:51:18.675Z,64.20
2018-05-27T00:53:58.238Z,54.40
2018-05-27T00:56:25.849Z,54.53
2018-05-27T00:58:53.597Z,60.57
2018-05-27T01:01:21.212Z,54.50
2018-05-27T01:03:48.925Z,54.33
2018-05-27T01:06:16.572Z,56.67
2018-05-27T01:08:44.223Z,51.03
2018-05-27T01:11:11.910Z,55.97
2018-05-27T01:13:39.551Z,66.40
2018-05-27T01:16:07.245Z,58.47
2018-05-27T01:18:34.913Z,53.83
2018-05-27T01:21:02.570Z,47.67
2018-05-27T01:23:30.230Z,46.73
2018-05-27T01:25:57.855Z,66.60
2018-05-27T01:28:25.559Z,51.80
2018-05-27T01:30:53.169Z,45.73
2018-05-27T01:33:20.803Z,48.33
2018-05-27T01:35:48.423Z,49.27
2018-05-27T01:38:16.075Z,55.83
2018-05-27T01:40:43.698Z,58.50
2018-05-27T01:43:11.337Z,60.33
2018-05-27T01:45:38.959Z,45.47
2018-05-27T01:48:06.603Z,55.90
2018-05-27T01:50:34.229Z,64.23
2018-05-27T01:53:01.875Z,45.67
2018-05-27T01:55:29.530Z,58.07
2018-05-27T01:57:57.199Z,60.47
2018-05-27T02:00:24.867Z,50.03
2018-05-27T02:02:52.523Z,60.07
2018-05-27T02:05:20.177Z,56.27
2018-05-27T02:07:47.807Z,57.20
2018-05-27T02:10:15.454Z,52.00
2018-05-27T02:12:43.180Z,54.37
2018-05-27T02:15:10.842Z,51.07
2018-05-27T02:17:38.503Z,52.37
2018-05-27T02:20:06.168Z,42.53
2018-05-27T02:22:33.787Z,49.47
2018-05-27T02:25:01.440Z,51.93
2018-05-27T02:27:29.064Z,43.63
2018-05-27T02:29:56.811Z,46.73
2018-05-27T02:32:24.433Z,49.87
2018-05-27T02:34:52.088Z,48.10
2018-05-27T02:37:19.707Z,50.27
2018-05-27T02:39:47.352Z,42.27
2018-05-27T02:42:15.029Z,38.60
2018-05-27T02:44:42.793Z,40.47
2018-05-27T02:47:11.267Z,40.37
2018-05-27T02:49:38.908Z,47.73
2018-05-27T02:52:06.544Z,38.47
2018-05-27T02:54:34.183Z,42.63
2018-05-27T02:57:01.821Z,53.77
2018-05-27T02:59:29.484Z,50.23
2018-05-27T03:01:57.144Z,48.73
2018-05-27T03:04:24.803Z,44.93
2018-05-27T03:06:52.418Z,46.20
2018-05-27T03:09:20.059Z,46.57
2018-05-27T03:11:47.712Z,40.43
2018-05-27T03:14:15.371Z,57.20
2018-05-27T03:16:42.992Z,40.87
2018-05-27T03:19:10.683Z,49.50
2018-05-27T03:21:38.326Z,42.90
2018-05-27T03:24:06.008Z,43.17
2018-05-27T03:26:33.763Z,46.77
2018-05-27T03:29:01.427Z,47.57
2018-05-27T03:31:29.091Z,41.67
2018-05-27T03:33:56.756Z,39.97
2018-05-27T03:36:24.415Z,45.07
2018-05-27T03:38:52.039Z,47.63
2018-05-27T03:41:19.679Z,43.30
2018-05-27T03:43:47.512Z,48.30
2018-05-27T03:46:15.161Z,42.40
2018-05-27T03:48:42.788Z,50.13
2018-05-27T03:51:10.447Z,42.47
2018-05-27T03:53:38.071Z,51.50
2018-05-27T03:56:05.815Z,41.70
2018-05-27T03:58:35.050Z,44.20
2018-05-27T04:01:02.695Z,57.40
2018-05-27T04:03:30.339Z,43.37
2018-05-27T04:06:09.880Z,43.73
2018-05-27T04:08:37.499Z,43.20
2018-05-27T04:11:05.143Z,43.97
2018-05-27T04:13:32.775Z,47.20
2018-05-27T04:16:00.526Z,47.33
2018-05-27T04:18:28.147Z,42.60
2018-05-27T04:20:55.855Z,52.47
2018-05-27T04:23:23.478Z,47.50
2018-05-27T04:25:51.179Z,45.33
2018-05-27T04:28:18.835Z,52.33
2018-05-27T04:30:46.475Z,40.27
2018-05-27T04:33:14.127Z,51.17
2018-05-27T04:35:41.742Z,43.57
2018-05-27T04:38:09.379Z,43.53
2018-05-27T04:40:37.000Z,49.30
2018-05-27T04:43:04.646Z,47.10
2018-05-27T04:45:32.266Z,47.93
2018-05-27T04:47:59.940Z,42.30
2018-05-27T04:50:27.607Z,44.97
2018-05-27T04:52:55.267Z,49.30
2018-05-27T04:55:22.931Z,36.67
2018-05-27T04:57:50.576Z,43.20
2018-05-27T05:00:18.250Z,34.27
2018-05-27T05:02:45.911Z,34.63
2018-05-27T05:05:13.530Z,47.03
2018-05-27T05:07:41.167Z,40.33
2018-05-27T05:10:08.788Z,42.77
2018-05-27T05:12:35.786Z,46.67
2018-05-27T05:15:03.438Z,44.63
2018-05-27T05:17:31.176Z,39.33
2018-05-27T05:19:58.809Z,37.33
2018-05-27T05:22:26.447Z,48.03
2018-05-27T05:24:54.158Z,35.67
2018-05-27T05:27:21.809Z,46.77
2018-05-27T05:29:49.427Z,39.33
2018-05-27T05:32:17.067Z,43.07
2018-05-27T05:34:44.712Z,40.43
2018-05-27T05:37:12.471Z,42.30
2018-05-27T05:39:40.091Z,42.03
2018-05-27T05:42:07.711Z,45.00
2018-05-27T05:44:35.356Z,45.30
2018-05-27T05:47:03.021Z,49.43
2018-05-27T05:49:30.664Z,53.03
2018-05-27T05:51:58.348Z,47.27
2018-05-27T05:54:26.016Z,42.93
2018-05-27T05:56:53.659Z,42.27
2018-05-27T05:59:21.719Z,40.17
2018-05-27T06:01:49.339Z,34.07
2018-05-27T06:04:16.983Z,38.87
2018-05-27T06:06:44.605Z,34.10
2018-05-27T06:09:12.287Z,36.50
2018-05-27T06:11:39.906Z,36.00
2018-05-27T06:14:07.547Z,32.70
2018-05-27T06:16:35.171Z,37.53
2018-05-27T06:19:02.821Z,30.77
2018-05-27T06:21:30.511Z,35.43
2018-05-27T06:23:58.259Z,34.87
2018-05-27T06:26:25.884Z,37.00
2018-05-27T06:28:53.522Z,39.80
2018-05-27T06:31:21.137Z,36.57
2018-05-27T06:33:48.814Z,33.13
2018-05-27T06:36:16.431Z,35.90
2018-05-27T06:38:44.076Z,30.83
2018-05-27T06:41:11.694Z,33.43
2018-05-27T06:43:39.335Z,30.40
2018-05-27T06:46:07.019Z,33.43
2018-05-27T06:48:34.692Z,30.97
2018-05-27T06:51:02.335Z,30.30
2018-05-27T06:53:29.951Z,29.67
2018-05-27T06:55:57.596Z,30.20
2018-05-27T06:58:25.218Z,26.20
2018-05-27T07:00:52.855Z,32.97
2018-05-27T07:03:20.554Z,32.80
2018-05-27T07:05:48.224Z,31.03
2018-05-27T07:08:15.840Z,38.43
2018-05-27T07:10:43.498Z,30.70
2018-05-27T07:13:11.203Z,33.50
2018-05-27T07:15:38.842Z,30.07
2018-05-27T07:18:06.459Z,33.17
2018-05-27T07:20:34.196Z,36.17
2018-05-27T07:23:01.815Z,32.27
2018-05-27T07:25:29.455Z,28.97
2018-05-27T07:27:57.075Z,35.47
2018-05-27T07:30:24.715Z,37.60
2018-05-27T07:32:52.335Z,31.47
2018-05-27T07:35:20.073Z,35.20
2018-05-27T07:37:47.691Z,30.97
2018-05-27T07:40:15.343Z,29.83
2018-05-27T07:42:42.959Z,35.43
2018-05-27T07:45:10.601Z,32.07
2018-05-27T07:47:38.223Z,29.47
2018-05-27T07:50:05.935Z,32.17
2018-05-27T07:52:33.560Z,34.10
2018-05-27T07:55:01.230Z,25.37
2018-05-27T07:57:28.852Z,23.70
2018-05-27T07:59:56.515Z,25.70
2018-05-27T08:02:24.134Z,22.77
2018-05-27T08:04:51.806Z,27.50
2018-05-27T08:07:19.447Z,23.90
2018-05-27T08:09:47.063Z,26.93
2018-05-27T08:12:14.707Z,30.83
2018-05-27T08:14:42.323Z,23.63
2018-05-27T08:17:09.963Z,26.10
2018-05-27T08:19:37.578Z,25.73
2018-05-27T08:22:05.223Z,26.30
2018-05-27T08:24:32.855Z,25.10
2018-05-27T08:27:00.500Z,28.83
2018-05-27T08:29:28.227Z,31.13
2018-05-27T08:31:55.898Z,23.90
2018-05-27T08:34:23.521Z,25.83
2018-05-27T08:36:51.167Z,24.97
2018-05-27T08:39:18.782Z,27.97
2018-05-27T08:41:46.428Z,27.07
2018-05-27T08:44:14.058Z,26.10
2018-05-27T08:46:41.704Z,23.90
2018-05-27T08:49:09.432Z,33.77
2018-05-27T08:51:37.080Z,21.43
2018-05-27T08:54:04.703Z,23.30
2018-05-27T08:56:32.342Z,26.07
2018-05-27T08:58:59.959Z,25.20
2018-05-27T09:01:27.679Z,28.83
2018-05-27T09:03:55.279Z,23.70
2018-05-27T09:06:22.925Z,21.10
2018-05-27T09:08:50.544Z,20.67
2018-05-27T09:11:18.195Z,21.50
2018-05-27T09:13:45.815Z,21.50
2018-05-27T09:16:13.435Z,21.20
2018-05-27T09:18:41.075Z,19.97
2018-05-27T09:21:08.697Z,19.73
2018-05-27T09:23:36.342Z,19.97
2018-05-27T09:26:04.057Z,20.57
2018-05-27T09:28:31.733Z,20.33
2018-05-27T09:30:59.374Z,21.10
2018-05-27T09:33:27.759Z,19.07
2018-05-27T09:35:55.386Z,17.93
2018-05-27T09:38:23.050Z,18.87
2018-05-27T09:40:50.675Z,20.60
2018-05-27T09:43:18.319Z,21.10
2018-05-27T09:45:45.971Z,20.43
2018-05-27T09:48:13.635Z,24.03
2018-05-27T09:50:41.253Z,20.27
2018-05-27T09:53:08.895Z,18.10
2018-05-27T09:55:36.515Z,19.63
2018-05-27T09:58:04.230Z,19.10
2018-05-27T10:00:31.827Z,18.30
2018-05-27T10:02:59.471Z,20.77
2018-05-27T10:05:27.101Z,18.47
2018-05-27T10:07:54.837Z,19.87
2018-05-27T10:10:22.459Z,19.40
2018-05-27T10:12:50.113Z,20.10
2018-05-27T10:15:17.740Z,16.87
2018-05-27T10:17:45.488Z,22.43
2018-05-27T10:20:13.147Z,20.37
2018-05-27T10:22:40.793Z,20.53
2018-05-27T10:25:08.407Z,18.23
2018-05-27T10:27:36.067Z,19.30
2018-05-27T10:30:03.791Z,16.53
2018-05-27T10:32:31.407Z,19.00
2018-05-27T10:34:59.124Z,19.87
2018-05-27T10:37:26.778Z,16.87
2018-05-27T10:39:54.448Z,15.97
2018-05-27T10:42:22.066Z,17.13
2018-05-27T10:44:49.721Z,16.17
2018-05-27T10:47:17.427Z,15.47
2018-05-27T10:49:45.091Z,15.00
2018-05-27T10:52:12.791Z,16.53
2018-05-27T10:54:40.423Z,17.50
2018-05-27T10:57:08.079Z,19.30
2018-05-27T10:59:35.747Z,17.00
2018-05-27T11:02:03.362Z,16.47
2018-05-27T11:04:31.004Z,15.80
2018-05-27T11:06:58.730Z,13.93
2018-05-27T11:09:26.392Z,14.70
2018-05-27T11:11:54.011Z,17.10
2018-05-27T11:14:21.721Z,16.43
2018-05-27T11:16:49.361Z,16.57
2018-05-27T11:19:17.046Z,17.47
2018-05-27T11:21:44.669Z,17.27
2018-05-27T11:24:12.316Z,18.63
2018-05-27T11:26:39.935Z,18.53
2018-05-27T11:29:07.582Z,19.20
2018-05-27T11:31:35.251Z,18.43
2018-05-27T11:34:02.891Z,19.00
2018-05-27T11:36:30.515Z,18.10
2018-05-27T11:38:58.180Z,19.20
2018-05-27T11:41:25.808Z,24.60
2018-05-27T11:43:53.427Z,22.53
2018-05-27T11:46:21.124Z,19.67
2018-05-27T11:48:48.799Z,19.70
2018-05-27T11:51:16.556Z,20.37
2018-05-27T11:53:44.186Z,19.47
2018-05-27T11:56:11.831Z,19.17
2018-05-27T11:58:39.453Z,18.60
2018-05-27T12:01:07.094Z,20.00
2018-05-27T12:03:34.715Z,19.20
2018-05-27T12:06:02.424Z,18.33
2018-05-27T12:08:30.092Z,18.47
2018-05-27T12:10:57.732Z,17.73
2018-05-27T12:13:25.359Z,18.37
2018-05-27T12:15:53.022Z,17.50
2018-05-27T12:18:20.647Z,13.43
2018-05-27T12:20:48.289Z,15.10
2018-05-27T12:23:15.922Z,15.57
2018-05-27T12:25:44.224Z,14.17
2018-05-27T12:28:11.847Z,14.17
2018-05-27T12:30:39.486Z,16.43
2018-05-27T12:33:07.108Z,16.20
2018-05-27T12:35:34.782Z,14.37
2018-05-27T12:38:02.446Z,14.77
2018-05-27T12:40:30.087Z,15.40
2018-05-27T12:42:57.768Z,14.63
2018-05-27T12:45:25.411Z,14.47
2018-05-27T12:47:53.030Z,14.23
2018-05-27T12:50:20.756Z,14.20
2018-05-27T12:52:48.387Z,17.13
2018-05-27T12:55:16.054Z,15.60
2018-05-27T12:57:43.708Z,17.50
2018-05-27T13:00:11.323Z,17.20
2018-05-27T13:02:38.972Z,13.80
2018-05-27T13:05:06.631Z,15.47
2018-05-27T13:07:34.266Z,19.90
2018-05-27T13:10:01.884Z,15.77
2018-05-27T13:12:29.539Z,15.13
2018-05-27T13:14:57.278Z,13.70
2018-05-27T13:17:25.530Z,15.40
2018-05-27T13:19:53.171Z,16.20
2018-05-27T13:22:20.811Z,13.97
2018-05-27T13:24:48.432Z,16.20
2018-05-27T13:27:16.078Z,14.30
2018-05-27T13:29:43.767Z,15.47
2018-05-27T13:32:11.412Z,14.70
2018-05-27T13:34:39.035Z,15.03
2018-05-27T13:37:06.685Z,13.93
2018-05-27T13:39:34.313Z,15.83
2018-05-27T13:42:01.957Z,14.77
2018-05-27T13:44:29.647Z,16.63
2018-05-27T13:46:57.403Z,16.70
2018-05-27T13:49:25.047Z,13.40
2018-05-27T13:51:52.695Z,18.73
2018-05-27T13:54:20.395Z,19.73
2018-05-27T13:56:48.181Z,14.10
2018-05-27T13:59:15.810Z,14.40
2018-05-27T14:01:43.450Z,13.77
2018-05-27T14:04:11.093Z,13.80
2018-05-27T14:06:38.746Z,14.27
2018-05-27T14:09:06.359Z,11.83
2018-05-27T14:11:33.975Z,11.90
2018-05-27T14:14:01.619Z,12.07
2018-05-27T14:16:29.355Z,15.33
2018-05-27T14:18:57.003Z,13.03
2018-05-27T14:21:24.624Z,13.83
2018-05-27T14:23:52.340Z,13.37
2018-05-27T14:26:19.967Z,13.23
2018-05-27T14:28:47.607Z,13.20
2018-05-27T14:31:15.335Z,12.43
2018-05-27T14:33:42.976Z,11.57
2018-05-27T14:36:10.603Z,11.90
2018-05-27T14:38:38.314Z,15.30
2018-05-27T14:41:05.935Z,12.93
2018-05-27T14:43:33.579Z,12.47
2018-05-27T14:46:01.196Z,13.03
2018-05-27T14:48:28.862Z,12.57
2018-05-27T14:50:56.483Z,13.87
2018-05-27T14:53:24.135Z,12.30
2018-05-27T14:55:51.755Z,12.23
2018-05-27T14:58:19.398Z,14.47
2018-05-27T15:00:47.075Z,18.90
2018-05-27T15:03:14.716Z,22.03
2018-05-27T15:05:42.335Z,22.47
2018-05-27T15:08:09.975Z,15.20
2018-05-27T15:10:37.624Z,15.33
2018-05-27T15:13:05.380Z,14.80
2018-05-27T15:15:33.003Z,14.47
2018-05-27T15:18:00.649Z,15.50
2018-05-27T15:20:28.367Z,13.90
2018-05-27T15:22:56.031Z,12.90
2018-05-27T15:25:23.727Z,12.47
2018-05-27T15:27:51.463Z,13.13
2018-05-27T15:30:19.219Z,11.67
2018-05-27T15:32:46.838Z,25.47
2018-05-27T15:35:14.476Z,12.30
2018-05-27T15:37:42.095Z,12.93
2018-05-27T15:40:09.735Z,11.23
2018-05-27T15:42:37.352Z,11.40
2018-05-27T15:45:04.996Z,12.10
2018-05-27T15:47:32.616Z,11.17
2018-05-27T15:50:00.263Z,11.23
2018-05-27T15:52:27.891Z,12.50
2018-05-27T15:54:55.647Z,11.20
2018-05-27T15:57:23.267Z,18.23
2018-05-27T15:59:50.984Z,13.17
2018-05-27T16:02:18.547Z,9.17
2018-05-27T16:04:46.187Z,13.90
2018-05-27T16:07:13.803Z,20.83
2018-05-27T16:09:41.436Z,9.73
2018-05-27T16:12:09.056Z,7.70
2018-05-27T16:14:36.690Z,22.97
2018-05-27T16:17:04.307Z,12.87
2018-05-27T16:19:31.947Z,10.30
2018-05-27T16:21:59.619Z,14.87
2018-05-27T16:24:27.260Z,7.97
2018-05-27T16:26:54.943Z,5.90
2018-05-27T16:29:22.606Z,14.23
2018-05-27T16:31:50.220Z,12.40
2018-05-27T16:34:17.931Z,6.33
2018-05-27T16:36:45.552Z,14.80
2018-05-27T16:39:13.207Z,6.90
2018-05-27T16:41:40.815Z,5.63
2018-05-27T16:44:08.430Z,7.10
2018-05-27T16:46:36.091Z,8.20
2018-05-27T16:49:03.715Z,5.83
2018-05-27T16:51:31.558Z,10.03
2018-05-27T16:53:59.178Z,7.03
2018-05-27T16:56:26.811Z,6.10
2018-05-27T16:58:54.465Z,7.10
2018-05-27T17:01:22.107Z,6.77
2018-05-27T17:03:49.775Z,12.40
2018-05-27T17:06:17.441Z,5.80
2018-05-27T17:08:45.109Z,6.30
2018-05-27T17:11:12.769Z,11.73
2018-05-27T17:13:40.508Z,6.43
2018-05-27T17:16:08.143Z,7.20
2018-05-27T17:18:35.759Z,6.03
2018-05-27T17:21:03.391Z,5.97
2018-05-27T17:23:31.008Z,5.67
2018-05-27T17:25:58.639Z,6.23
2018-05-27T17:28:26.251Z,4.50
2018-05-27T17:30:53.891Z,5.40
2018-05-27T17:33:21.520Z,5.40
2018-05-27T17:35:49.156Z,4.50
2018-05-27T17:38:16.842Z,5.00
2018-05-27T17:40:44.483Z,4.80
2018-05-27T17:43:12.275Z,10.80
2018-05-27T17:45:40.046Z,6.23
2018-05-27T17:48:10.963Z,6.03
2018-05-27T17:50:38.583Z,6.30
2018-05-27T17:53:06.233Z,6.70
2018-05-27T17:55:33.846Z,6.27
2018-05-27T17:58:01.498Z,6.50
2018-05-27T18:00:29.132Z,6.57
2018-05-27T18:02:56.892Z,6.70
2018-05-27T18:05:24.631Z,14.37
2018-05-27T18:07:52.380Z,7.10
2018-05-27T18:10:20.039Z,5.97
2018-05-27T18:12:47.711Z,7.77
2018-05-27T18:15:15.323Z,6.40
2018-05-27T18:17:42.964Z,6.30
2018-05-27T18:20:10.683Z,8.83
2018-05-27T18:22:38.317Z,7.53
2018-05-27T18:25:06.015Z,7.80
2018-05-27T18:27:33.676Z,13.13
2018-05-27T18:30:01.343Z,6.90
2018-05-27T18:32:28.975Z,10.97
2018-05-27T18:34:56.582Z,6.90
2018-05-27T18:37:24.231Z,7.00
2018-05-27T18:39:51.887Z,6.93
2018-05-27T18:42:19.519Z,6.77
2018-05-27T18:44:47.154Z,7.33
2018-05-27T18:47:14.871Z,6.93
2018-05-27T18:49:42.483Z,9.10
2018-05-27T18:52:10.300Z,7.03
2018-05-27T18:54:37.959Z,7.70
2018-05-27T18:57:05.591Z,8.10
2018-05-27T18:59:33.290Z,8.63
2018-05-27T19:02:01.051Z,8.83
2018-05-27T19:04:28.810Z,7.80
2018-05-27T19:06:56.423Z,12.00
2018-05-27T19:09:24.199Z,6.83
2018-05-27T19:11:51.812Z,6.83
2018-05-27T19:14:19.469Z,8.50
2018-05-27T19:16:47.082Z,7.10
2018-05-27T19:19:14.723Z,6.80
2018-05-27T19:21:42.336Z,6.37
2018-05-27T19:24:09.975Z,6.50
2018-05-27T19:26:37.586Z,10.47
2018-05-27T19:29:05.225Z,7.37
2018-05-27T19:31:32.835Z,5.97
2018-05-27T19:34:00.476Z,5.30
2018-05-27T19:36:28.123Z,5.43
2018-05-27T19:38:55.787Z,5.33
2018-05-27T19:41:23.401Z,5.73
2018-05-27T19:43:51.048Z,9.50
2018-05-27T19:46:18.766Z,6.93
2018-05-27T19:48:46.408Z,4.77
2018-05-27T19:51:14.025Z,4.80
2018-05-27T19:53:41.663Z,3.93
2018-05-27T19:56:09.452Z,4.80
2018-05-27T19:58:37.091Z,5.20
2018-05-27T20:01:04.702Z,6.00
2018-05-27T20:03:32.407Z,4.93
2018-05-27T20:06:00.068Z,5.63
2018-05-27T20:08:27.707Z,6.00
2018-05-27T20:10:55.326Z,6.10
2018-05-27T20:13:22.959Z,5.67
2018-05-27T20:15:50.572Z,5.30
2018-05-27T20:18:18.183Z,6.73
2018-05-27T20:20:45.820Z,5.60
2018-05-27T20:23:13.501Z,5.20
2018-05-27T20:25:41.135Z,6.50
2018-05-27T20:28:08.823Z,6.33
2018-05-27T20:30:36.464Z,4.83
2018-05-27T20:33:04.076Z,5.80
2018-05-27T20:35:31.794Z,5.73
2018-05-27T20:37:59.415Z,4.57
2018-05-27T20:40:27.137Z,9.23
2018-05-27T20:42:54.795Z,5.10
2018-05-27T20:45:22.459Z,5.10
2018-05-27T20:47:50.070Z,5.87
2018-05-27T20:50:17.711Z,6.23
2018-05-27T20:52:45.343Z,5.90
2018-05-27T20:55:13.007Z,5.47
2018-05-27T20:57:40.616Z,6.27
2018-05-27T21:00:08.251Z,6.17
2018-05-27T21:02:35.892Z,7.30
2018-05-27T21:05:03.523Z,5.80
2018-05-27T21:07:31.139Z,6.50
2018-05-27T21:09:58.777Z,10.20
2018-05-27T21:12:26.392Z,7.20
2018-05-27T21:14:54.027Z,6.60
2018-05-27T21:17:21.638Z,7.03
2018-05-27T21:19:49.271Z,7.23
2018-05-27T21:22:16.883Z,7.33
2018-05-27T21:24:44.510Z,8.10
2018-05-27T21:27:12.127Z,10.30
2018-05-27T21:29:39.763Z,8.33
2018-05-27T21:32:07.395Z,7.77
2018-05-27T21:34:35.092Z,7.03
2018-05-27T21:37:02.756Z,9.20
2018-05-27T21:39:30.414Z,14.40
2018-05-27T21:41:58.051Z,9.40
2018-05-27T21:44:25.735Z,8.00
2018-05-27T21:46:53.372Z,8.40
2018-05-27T21:49:20.988Z,9.63
2018-05-27T21:51:48.629Z,9.57
2018-05-27T21:54:16.239Z,9.83
2018-05-27T21:56:43.952Z,9.27
2018-05-27T21:59:11.564Z,9.20
2018-05-27T22:01:39.208Z,10.53
2018-05-27T22:04:06.820Z,9.00
2018-05-27T22:06:34.500Z,9.83
2018-05-27T22:09:02.175Z,9.37
2018-05-27T22:11:29.813Z,8.37
2018-05-27T22:13:57.419Z,9.47
2018-05-27T22:16:25.151Z,9.90
2018-05-27T22:18:52.808Z,11.13
2018-05-27T22:21:20.452Z,8.97
2018-05-27T22:23:48.067Z,9.00
2018-05-27T22:26:15.799Z,10.40
2018-05-27T22:28:43.463Z,9.50
2018-05-27T22:31:11.108Z,14.07
2018-05-27T22:33:38.718Z,9.77
2018-05-27T22:36:06.364Z,10.07
2018-05-27T22:38:33.978Z,10.57
2018-05-27T22:41:01.639Z,10.50
2018-05-27T22:43:29.262Z,10.47
2018-05-27T22:45:56.888Z,10.63
2018-05-27T22:48:24.524Z,10.10
2018-05-27T22:50:52.214Z,10.63
2018-05-27T22:53:19.881Z,10.13
2018-05-27T22:55:47.543Z,11.20
2018-05-27T22:58:15.182Z,11.20
2018-05-27T23:00:42.795Z,10.80
2018-05-27T23:03:10.431Z,11.30
2018-05-27T23:05:38.094Z,12.20
2018-05-27T23:08:05.752Z,12.90
2018-05-27T23:10:33.367Z,13.47
2018-05-27T23:13:01.007Z,11.77
2018-05-27T23:15:28.625Z,11.30
2018-05-27T23:17:56.267Z,14.90
2018-05-27T23:20:23.891Z,11.57
2018-05-27T23:22:51.535Z,11.63
2018-05-27T23:25:19.147Z,11.33
2018-05-27T23:27:46.843Z,12.57
2018-05-27T23:30:14.516Z,11.90
2018-05-27T23:32:42.171Z,13.23
2018-05-27T23:35:09.786Z,13.60
2018-05-27T23:37:37.499Z,15.17
2018-05-27T23:40:05.115Z,12.00
2018-05-27T23:42:32.824Z,12.00
2018-05-27T23:45:00.488Z,16.73
2018-05-27T23:47:28.691Z,12.73
2018-05-27T23:49:56.312Z,14.93
2018-05-27T23:52:23.982Z,12.47
2018-05-27T23:54:51.611Z,12.10
2018-05-27T23:57:19.239Z,10.93
2018-05-27T23:59:46.967Z,11.77
